Time;durP1;ratioP1;P1;durP2;ratioP2;P2;SDS_P1;SDS_P2;PMS_P1;PMS_P2;Temp;Humidity;BMP_temperature;BMP_pressure;BME280_temperature;BME280_humidity;BME280_pressure;Samples;Min_cycle;Max_cycle;Signal;HPM_P1;HPM_P2
2023/04/03 00:01:37;;;;;;;2.38;1.40;;;2.40;99.90;;;;;;5047746;28;20040;-66
2023/04/03 00:04:04;;;;;;;2.70;1.60;;;2.30;99.90;;;;;;5029586;28;21801;-65
2023/04/03 00:06:30;;;;;;;3.22;1.58;;;2.30;99.90;;;;;;5032895;28;20037;-65
2023/04/03 00:08:55;;;;;;;4.85;1.60;;;2.30;99.90;;;;;;5044827;28;20036;-65
2023/04/03 00:11:21;;;;;;;4.50;2.28;;;2.30;99.90;;;;;;5053288;28;20039;-66
2023/04/03 00:13:47;;;;;;;5.40;2.03;;;2.30;99.90;;;;;;5049320;28;20112;-65
2023/04/03 00:16:12;;;;;;;5.20;2.20;;;2.40;99.90;;;;;;5049113;28;20053;-65
2023/04/03 00:18:39;;;;;;;2.88;1.70;;;2.40;99.90;;;;;;5040219;28;20052;-64
2023/04/03 00:21:05;;;;;;;10.80;2.38;;;2.40;99.90;;;;;;5045965;28;20603;-66
2023/04/03 00:23:31;;;;;;;2.60;1.40;;;2.30;99.90;;;;;;5043996;28;20068;-65
2023/04/03 00:25:57;;;;;;;5.32;1.73;;;2.30;99.90;;;;;;5038289;28;20124;-65
2023/04/03 00:28:23;;;;;;;3.22;1.63;;;2.30;99.90;;;;;;5043426;28;20115;-65
2023/04/03 00:30:50;;;;;;;5.35;1.48;;;2.30;99.90;;;;;;5041724;28;20041;-67
2023/04/03 00:33:16;;;;;;;3.05;1.83;;;2.40;99.90;;;;;;5037322;28;20032;-65
2023/04/03 00:35:42;;;;;;;3.47;1.33;;;2.30;99.90;;;;;;5024493;28;20022;-65
2023/04/03 00:38:08;;;;;;;3.15;1.70;;;2.30;99.90;;;;;;5044483;28;20112;-64
2023/04/03 00:40:38;;;;;;;2.47;1.30;;;2.30;99.90;;;;;;5048223;28;20183;-66
2023/04/03 00:43:34;;;;;;;3.72;1.83;;;2.30;99.90;;;;;;5019790;28;20033;-65
2023/04/03 00:46:00;;;;;;;6.07;1.85;;;2.30;99.90;;;;;;5022048;28;20041;-66
2023/04/03 00:48:40;;;;;;;4.70;2.03;;;2.30;99.90;;;;;;5043332;28;20025;-65
2023/04/03 00:51:09;;;;;;;4.88;1.55;;;2.30;99.90;;;;;;5041456;28;20033;-65
2023/04/03 00:53:43;;;;;;;3.00;1.35;;;2.40;99.90;;;;;;5026396;28;20459;-65
2023/04/03 00:56:12;;;;;;;4.47;1.83;;;2.50;99.90;;;;;;5041362;28;20040;-65
2023/04/03 00:58:44;;;;;;;5.13;2.13;;;2.50;99.90;;;;;;5040503;28;20037;-64
2023/04/03 01:01:14;;;;;;;5.63;1.75;;;2.50;99.90;;;;;;5023439;28;20029;-65
2023/04/03 01:03:39;;;;;;;6.63;2.30;;;2.60;99.90;;;;;;5047781;28;20025;-65
2023/04/03 01:06:05;;;;;;;4.70;1.65;;;2.60;99.90;;;;;;5042264;28;20029;-64
2023/04/03 01:08:31;;;;;;;6.00;1.80;;;2.50;99.90;;;;;;5027347;28;20063;-65
2023/04/03 01:10:57;;;;;;;3.90;1.27;;;2.50;99.90;;;;;;5047644;28;20075;-65
2023/04/03 01:13:30;;;;;;;3.03;1.48;;;2.40;99.90;;;;;;5048570;28;20071;-65
2023/04/03 01:15:56;;;;;;;7.40;1.35;;;2.40;99.90;;;;;;5043586;28;20078;-65
2023/04/03 01:18:24;;;;;;;2.72;1.75;;;2.40;99.90;;;;;;5049568;28;20036;-65
2023/04/03 01:21:13;;;;;;;2.03;1.50;;;2.40;99.90;;;;;;5046254;28;20033;-65
2023/04/03 01:23:55;;;;;;;2.47;1.50;;;2.40;99.90;;;;;;5015366;28;20072;-64
2023/04/03 01:26:21;;;;;;;2.17;1.35;;;2.40;99.90;;;;;;5048356;28;20060;-65
2023/04/03 01:28:46;;;;;;;3.95;1.35;;;2.20;99.90;;;;;;5048644;28;20399;-65
2023/04/03 01:31:20;;;;;;;7.40;1.88;;;2.20;99.90;;;;;;5031322;28;20108;-66
2023/04/03 01:33:46;;;;;;;5.35;1.70;;;2.20;99.90;;;;;;5047202;28;20020;-65
2023/04/03 01:36:17;;;;;;;2.30;1.60;;;2.20;99.90;;;;;;5044536;28;20031;-66
2023/04/03 01:38:43;;;;;;;4.38;1.10;;;2.20;99.90;;;;;;5048260;28;20009;-65
2023/04/03 01:43:36;;;;;;;5.05;1.20;;;2.20;99.90;;;;;;5006475;28;20538;-65
2023/04/03 01:46:02;;;;;;;1.50;1.10;;;2.20;99.90;;;;;;5006801;28;20022;-65
2023/04/03 01:48:28;;;;;;;1.75;1.25;;;2.10;99.90;;;;;;5009885;28;20488;-67
2023/04/03 01:50:53;;;;;;;2.30;1.20;;;2.10;99.90;;;;;;5005219;28;20033;-65
2023/04/03 01:53:19;;;;;;;7.30;1.70;;;2.00;99.90;;;;;;5008672;28;20030;-65
2023/04/03 01:55:45;;;;;;;3.92;1.85;;;1.90;99.90;;;;;;5001738;28;20018;-64
2023/04/03 01:58:10;;;;;;;1.98;1.33;;;1.90;99.90;;;;;;4994122;28;20459;-64
2023/04/03 02:00:36;;;;;;;3.65;1.20;;;1.90;99.90;;;;;;5006928;28;20097;-65
2023/04/03 02:03:02;;;;;;;2.15;1.30;;;1.90;99.90;;;;;;5001869;28;20108;-64
2023/04/03 02:05:28;;;;;;;2.80;1.35;;;1.80;99.90;;;;;;4993966;28;20519;-63
2023/04/03 02:07:54;;;;;;;4.20;1.52;;;1.80;99.90;;;;;;4998575;28;20026;-64
2023/04/03 02:10:20;;;;;;;4.55;1.42;;;1.90;99.90;;;;;;5008264;28;20077;-64
2023/04/03 02:12:45;;;;;;;3.08;1.50;;;1.90;99.90;;;;;;5008323;28;20042;-65
2023/04/03 02:15:11;;;;;;;2.13;1.30;;;1.90;99.90;;;;;;5007898;28;20036;-64
2023/04/03 02:17:37;;;;;;;3.42;1.40;;;1.90;99.90;;;;;;5006811;28;20100;-65
2023/04/03 02:20:03;;;;;;;5.03;1.70;;;1.90;99.90;;;;;;5024475;28;21113;-65
2023/04/03 02:22:29;;;;;;;3.67;1.30;;;1.80;99.90;;;;;;5009775;28;20120;-65
2023/04/03 02:24:54;;;;;;;5.20;1.40;;;1.80;99.90;;;;;;5005713;28;20470;-65
2023/04/03 02:27:20;;;;;;;4.85;1.50;;;1.70;99.90;;;;;;5008235;28;20030;-66
2023/04/03 02:29:46;;;;;;;4.70;1.60;;;1.70;99.90;;;;;;5024121;28;20507;-64
2023/04/03 02:32:11;;;;;;;4.40;1.30;;;1.70;99.90;;;;;;5010733;28;20060;-65
2023/04/03 02:34:37;;;;;;;5.55;1.88;;;1.60;99.90;;;;;;5009916;28;20022;-65
2023/04/03 02:37:02;;;;;;;5.85;1.50;;;1.70;99.90;;;;;;5000297;28;20018;-65
2023/04/03 02:39:28;;;;;;;2.53;1.10;;;1.60;99.90;;;;;;5004548;28;20026;-66
2023/04/03 02:41:54;;;;;;;4.28;1.30;;;1.60;99.90;;;;;;5005597;28;20033;-65
2023/04/03 02:44:19;;;;;;;4.72;1.60;;;1.60;99.90;;;;;;5001346;28;20084;-66
2023/04/03 02:46:45;;;;;;;5.57;1.58;;;1.70;99.90;;;;;;5010500;28;20033;-65
2023/04/03 02:49:10;;;;;;;2.25;1.35;;;1.70;99.90;;;;;;5005324;28;20057;-64
2023/04/03 02:51:36;;;;;;;3.13;1.40;;;1.70;99.90;;;;;;5007965;28;20029;-65
2023/04/03 02:54:02;;;;;;;3.58;1.52;;;1.70;99.90;;;;;;5007926;28;20480;-65
2023/04/03 02:56:27;;;;;;;1.83;1.23;;;1.70;99.90;;;;;;5007962;28;20372;-66
2023/04/03 02:58:53;;;;;;;2.97;1.55;;;1.70;99.90;;;;;;4985539;28;20042;-65
2023/04/03 03:01:19;;;;;;;5.53;1.80;;;1.70;99.90;;;;;;5009143;28;20044;-66
2023/04/03 03:03:45;;;;;;;2.78;1.45;;;1.60;99.90;;;;;;5007996;28;20033;-65
2023/04/03 03:06:13;;;;;;;5.18;1.50;;;1.60;99.90;;;;;;5003592;28;20025;-64
2023/04/03 03:08:39;;;;;;;5.82;1.50;;;1.60;99.90;;;;;;5003534;28;20026;-65
2023/04/03 03:11:05;;;;;;;5.10;1.77;;;1.60;99.90;;;;;;5007672;28;20475;-65
2023/04/03 03:13:31;;;;;;;3.53;1.20;;;1.50;99.90;;;;;;5007215;28;20502;-64
2023/04/03 03:15:57;;;;;;;6.68;2.03;;;1.50;99.90;;;;;;5004315;28;20030;-67
2023/04/03 03:18:23;;;;;;;2.33;1.40;;;1.40;99.90;;;;;;5006141;28;20027;-69
2023/04/03 03:20:56;;;;;;;2.90;1.88;;;1.40;99.90;;;;;;5005500;28;20037;-66
2023/04/03 03:23:24;;;;;;;3.58;1.58;;;1.30;99.90;;;;;;5003593;28;20034;-67
2023/04/03 03:25:58;;;;;;;7.15;1.83;;;1.30;99.90;;;;;;5007233;28;20034;-64
2023/04/03 03:28:24;;;;;;;3.92;1.75;;;1.30;99.90;;;;;;5003649;28;20026;-65
2023/04/03 03:30:49;;;;;;;9.32;2.13;;;1.20;99.90;;;;;;5008710;28;20506;-64
2023/04/03 03:33:17;;;;;;;4.53;2.20;;;1.20;99.90;;;;;;5009152;28;20030;-65
2023/04/03 03:35:43;;;;;;;4.30;1.92;;;1.20;99.90;;;;;;5007694;28;20108;-65
2023/04/03 03:38:08;;;;;;;8.90;2.72;;;1.20;99.90;;;;;;5009881;28;20054;-64
2023/04/03 03:40:34;;;;;;;6.93;2.97;;;1.10;99.90;;;;;;5009873;28;20112;-65
2023/04/03 03:43:00;;;;;;;6.00;1.38;;;1.20;99.90;;;;;;5009177;28;20030;-66
2023/04/03 03:45:25;;;;;;;8.23;2.85;;;1.10;99.90;;;;;;5006905;28;20033;-64
2023/04/03 03:47:51;;;;;;;2.95;1.70;;;1.10;99.90;;;;;;5009629;28;20101;-65
2023/04/03 03:50:16;;;;;;;6.65;1.90;;;1.10;99.90;;;;;;5004110;28;20026;-65
2023/04/03 03:52:42;;;;;;;2.97;2.08;;;1.10;99.90;;;;;;5008555;28;20076;-65
2023/04/03 03:55:08;;;;;;;3.75;1.52;;;1.10;99.90;;;;;;5007313;28;20026;-66
2023/04/03 03:57:33;;;;;;;7.57;1.85;;;1.10;99.90;;;;;;4987539;28;20526;-65
2023/04/03 03:59:59;;;;;;;2.95;1.65;;;1.10;99.90;;;;;;5005473;28;20022;-64
2023/04/03 04:02:25;;;;;;;5.13;1.77;;;1.10;99.90;;;;;;5007442;28;20099;-63
2023/04/03 04:04:50;;;;;;;6.40;1.88;;;1.10;99.90;;;;;;5006136;28;20559;-64
2023/04/03 04:07:16;;;;;;;6.30;1.80;;;1.10;99.90;;;;;;5006092;28;20084;-66
2023/04/03 04:09:42;;;;;;;4.28;1.70;;;1.10;99.90;;;;;;5001361;28;20053;-64
2023/04/03 04:12:07;;;;;;;10.57;1.73;;;1.00;99.90;;;;;;5006350;28;20033;-65
2023/04/03 04:14:33;;;;;;;7.97;1.73;;;1.00;99.90;;;;;;5006442;28;20469;-63
2023/04/03 04:16:58;;;;;;;9.52;1.80;;;1.00;99.90;;;;;;5006165;28;20018;-66
2023/04/03 04:19:24;;;;;;;6.47;1.67;;;1.00;99.90;;;;;;5004569;28;20031;-65
2023/04/03 04:21:50;;;;;;;4.45;2.03;;;0.90;99.90;;;;;;5003532;28;20403;-68
2023/04/03 04:24:15;;;;;;;4.60;2.20;;;0.80;99.90;;;;;;5003049;28;20132;-64
2023/04/03 04:26:41;;;;;;;5.80;2.15;;;0.90;99.90;;;;;;5007639;28;20069;-65
2023/04/03 04:29:09;;;;;;;7.40;2.10;;;0.80;99.90;;;;;;5010733;28;20036;-65
2023/04/03 04:31:35;;;;;;;6.85;2.33;;;0.80;99.90;;;;;;5006639;28;20033;-64
2023/04/03 04:34:00;;;;;;;4.95;2.35;;;0.80;99.90;;;;;;5003748;28;20502;-68
2023/04/03 04:36:26;;;;;;;7.72;2.58;;;0.80;99.90;;;;;;5004397;28;20038;-64
2023/04/03 04:38:52;;;;;;;7.15;2.83;;;0.80;99.90;;;;;;5010421;28;20470;-64
2023/04/03 04:41:22;;;;;;;4.97;2.15;;;0.70;99.90;;;;;;5009711;28;20030;-65
2023/04/03 04:43:48;;;;;;;3.88;1.77;;;0.70;99.90;;;;;;5011587;28;20036;-66
2023/04/03 04:46:14;;;;;;;6.32;1.83;;;0.70;99.90;;;;;;5008812;28;20036;-67
2023/04/03 04:48:40;;;;;;;2.33;1.40;;;0.70;99.90;;;;;;5008002;28;20026;-68
2023/04/03 04:51:06;;;;;;;2.92;1.60;;;0.60;99.90;;;;;;5007521;28;20030;-68
2023/04/03 04:53:31;;;;;;;2.67;1.45;;;0.60;99.90;;;;;;5008695;28;20446;-67
2023/04/03 04:55:57;;;;;;;4.25;1.48;;;0.60;99.90;;;;;;5007461;28;20037;-67
2023/04/03 04:58:23;;;;;;;7.43;1.83;;;0.60;99.90;;;;;;4984328;28;20602;-65
2023/04/03 05:00:48;;;;;;;8.50;1.83;;;0.60;99.90;;;;;;5009714;28;20561;-66
2023/04/03 05:03:14;;;;;;;4.50;2.00;;;0.50;99.90;;;;;;5009366;28;20037;-65
2023/04/03 05:05:40;;;;;;;4.45;1.75;;;0.50;99.90;;;;;;5006883;28;20080;-66
2023/04/03 05:08:08;;;;;;;2.83;1.30;;;0.60;99.90;;;;;;5008589;28;20037;-66
2023/04/03 05:10:34;;;;;;;3.72;1.70;;;0.60;99.90;;;;;;5006272;28;20088;-67
2023/04/03 05:12:59;;;;;;;3.00;1.40;;;0.50;99.90;;;;;;5003650;28;20018;-65
2023/04/03 05:15:25;;;;;;;2.40;1.58;;;0.60;99.90;;;;;;5002714;28;20419;-67
2023/04/03 05:17:50;;;;;;;2.40;1.05;;;0.60;99.90;;;;;;5003735;28;20419;-66
2023/04/03 05:20:17;;;;;;;2.47;1.15;;;0.70;99.90;;;;;;5003061;28;20026;-68
2023/04/03 05:22:42;;;;;;;5.63;1.23;;;0.80;99.90;;;;;;5003108;28;20026;-67
2023/04/03 05:25:08;;;;;;;7.72;1.00;;;0.90;99.90;;;;;;5003284;28;20030;-65
2023/04/03 05:27:34;;;;;;;7.45;1.40;;;0.90;99.90;;;;;;5011011;28;20087;-65
2023/04/03 05:30:00;;;;;;;2.50;1.50;;;1.00;99.90;;;;;;5009791;28;20121;-65
2023/04/03 05:32:27;;;;;;;2.22;1.23;;;1.00;99.90;;;;;;5009627;28;20073;-66
2023/04/03 05:34:53;;;;;;;1.17;0.57;;;1.00;99.90;;;;;;5011811;28;20026;-65
2023/04/03 05:37:18;;;;;;;7.68;2.10;;;1.00;99.90;;;;;;5011513;28;20014;-65
2023/04/03 05:39:44;;;;;;;2.83;1.60;;;1.10;99.90;;;;;;5009487;28;20018;-67
2023/04/03 05:42:11;;;;;;;6.38;1.70;;;1.20;99.90;;;;;;5011777;28;20026;-68
2023/04/03 05:44:37;;;;;;;6.43;1.33;;;1.40;99.90;;;;;;5010201;28;20432;-65
2023/04/03 05:47:03;;;;;;;7.85;1.42;;;1.50;99.90;;;;;;5011067;28;20023;-67
2023/04/03 05:49:29;;;;;;;4.32;1.60;;;1.60;99.90;;;;;;5005586;28;20033;-67
2023/04/03 05:51:54;;;;;;;4.82;2.20;;;1.70;99.90;;;;;;5011549;28;20033;-66
2023/04/03 05:54:29;;;;;;;5.38;1.33;;;1.80;99.90;;;;;;5010265;28;20125;-68
2023/04/03 05:56:54;;;;;;;3.35;1.52;;;1.90;99.90;;;;;;5008265;28;20018;-64
2023/04/03 05:59:20;;;;;;;4.38;1.58;;;2.00;99.90;;;;;;4987198;28;20042;-65
2023/04/03 06:01:47;;;;;;;4.30;1.52;;;2.20;99.90;;;;;;5006311;28;20033;-65
2023/04/03 06:04:13;;;;;;;6.60;2.88;;;2.60;99.90;;;;;;5000494;28;20053;-64
2023/04/03 06:06:53;;;;;;;4.82;1.23;;;3.10;99.90;;;;;;5004262;28;20156;-65
2023/04/03 06:09:21;;;;;;;4.63;1.08;;;3.70;99.90;;;;;;5007446;28;20488;-65
2023/04/03 06:11:47;;;;;;;9.07;1.38;;;4.40;99.90;;;;;;5008375;28;20049;-64
2023/04/03 06:14:13;;;;;;;3.92;1.40;;;5.60;99.90;;;;;;5023722;28;20472;-65
2023/04/03 06:16:39;;;;;;;2.15;1.35;;;6.60;99.90;;;;;;5005363;28;20030;-66
2023/04/03 06:19:05;;;;;;;3.58;1.42;;;7.50;99.90;;;;;;5007748;28;20030;-68
2023/04/03 06:21:31;;;;;;;2.33;1.02;;;8.40;99.90;;;;;;5007675;28;20025;-64
2023/04/03 06:23:57;;;;;;;3.30;1.35;;;8.20;98.90;;;;;;5008692;28;20033;-67
2023/04/03 06:26:22;;;;;;;5.40;1.15;;;7.60;99.60;;;;;;5004362;28;20029;-66
2023/04/03 06:28:48;;;;;;;1.30;0.85;;;7.10;99.90;;;;;;5008445;28;20558;-67
2023/04/03 06:31:14;;;;;;;1.98;1.13;;;7.10;99.90;;;;;;5008639;28;20113;-67
2023/04/03 06:33:40;;;;;;;3.10;1.00;;;6.90;99.90;;;;;;5003135;28;20034;-68
2023/04/03 06:36:06;;;;;;;3.00;1.33;;;6.70;99.90;;;;;;5003183;28;20402;-68
2023/04/03 06:38:33;;;;;;;4.93;2.15;;;6.70;99.90;;;;;;5006904;28;20026;-68
2023/04/03 06:41:00;;;;;;;3.33;1.30;;;6.90;99.90;;;;;;5008045;28;20026;-66
2023/04/03 06:43:25;;;;;;;6.72;1.52;;;7.00;99.90;;;;;;5005542;28;20130;-68
2023/04/03 06:45:51;;;;;;;2.40;1.08;;;6.90;99.90;;;;;;5006475;28;20033;-65
2023/04/03 06:48:17;;;;;;;3.38;1.08;;;7.10;99.90;;;;;;5005656;28;20034;-66
2023/04/03 06:50:43;;;;;;;4.25;1.50;;;7.40;99.90;;;;;;5008605;28;20472;-66
2023/04/03 06:53:09;;;;;;;4.93;1.25;;;7.90;99.60;;;;;;5007977;28;20491;-65
2023/04/03 06:55:35;;;;;;;3.53;1.42;;;8.30;98.70;;;;;;5006132;28;20072;-66
2023/04/03 06:58:01;;;;;;;4.00;1.20;;;8.30;99.00;;;;;;5004535;28;20438;-64
2023/04/03 07:00:27;;;;;;;4.53;1.60;;;9.10;98.50;;;;;;4983421;28;20029;-67
2023/04/03 07:02:53;;;;;;;6.15;2.13;;;10.10;97.20;;;;;;5002307;28;20014;-67
2023/04/03 07:05:20;;;;;;;6.00;1.40;;;11.40;95.30;;;;;;5004161;28;20025;-66
2023/04/03 07:07:45;;;;;;;4.55;2.10;;;12.40;93.50;;;;;;5003685;28;20026;-65
2023/04/03 07:10:11;;;;;;;5.70;1.48;;;12.10;93.10;;;;;;5007136;28;20480;-68
2023/04/03 07:12:37;;;;;;;2.47;1.80;;;12.50;92.00;;;;;;5005338;28;20076;-69
2023/04/03 07:15:05;;;;;;;2.55;1.15;;;13.80;90.10;;;;;;5002743;28;20418;-65
2023/04/03 07:17:31;;;;;;;4.22;1.70;;;14.50;89.00;;;;;;5004978;28;20040;-65
2023/04/03 07:19:56;;;;;;;7.28;1.30;;;14.60;87.50;;;;;;5007613;28;20042;-67
2023/04/03 07:22:22;;;;;;;4.35;1.00;;;14.70;82.90;;;;;;5009000;28;20038;-66
2023/04/03 07:24:47;;;;;;;2.35;0.93;;;14.80;84.30;;;;;;5007754;28;20076;-66
2023/04/03 07:27:13;;;;;;;2.65;1.00;;;15.20;82.10;;;;;;5007447;28;20061;-66
2023/04/03 07:29:39;;;;;;;4.72;1.20;;;15.00;81.40;;;;;;5008747;28;20026;-67
2023/04/03 07:32:06;;;;;;;8.05;1.33;;;14.70;83.90;;;;;;5007685;28;20030;-65
2023/04/03 07:34:32;;;;;;;3.50;1.27;;;15.20;80.40;;;;;;5007660;28;20022;-68
2023/04/03 07:36:59;;;;;;;2.08;1.05;;;14.60;81.00;;;;;;5009011;28;20022;-68
2023/04/03 07:39:25;;;;;;;1.58;0.80;;;15.30;79.20;;;;;;5008885;28;20032;-65
2023/04/03 07:41:51;;;;;;;5.80;1.20;;;15.70;78.80;;;;;;5007555;28;20044;-67
2023/04/03 07:44:17;;;;;;;5.25;1.30;;;14.20;76.90;;;;;;5006914;28;20026;-69
2023/04/03 07:46:43;;;;;;;3.22;1.05;;;13.60;79.80;;;;;;5010186;28;20030;-66
2023/04/03 07:49:09;;;;;;;3.67;1.42;;;13.90;81.50;;;;;;5008202;28;20033;-67
2023/04/03 07:51:35;;;;;;;3.83;1.05;;;14.40;80.00;;;;;;5008800;28;20034;-65
2023/04/03 07:54:00;;;;;;;3.08;1.00;;;15.60;77.70;;;;;;5008255;28;20021;-67
2023/04/03 07:56:26;;;;;;;3.05;1.02;;;15.90;77.80;;;;;;5008945;28;20026;-67
2023/04/03 07:58:52;;;;;;;3.03;1.20;;;15.00;74.90;;;;;;4998703;28;20412;-65
2023/04/03 08:01:17;;;;;;;1.55;0.90;;;14.20;80.00;;;;;;5008367;28;20058;-68
2023/04/03 08:03:43;;;;;;;2.17;1.13;;;15.10;78.60;;;;;;5011673;28;20030;-68
2023/04/03 08:06:09;;;;;;;6.15;1.50;;;15.70;76.00;;;;;;5010000;28;20495;-69
2023/04/03 08:08:36;;;;;;;2.15;1.02;;;15.80;75.80;;;;;;5011348;28;20025;-66
2023/04/03 08:11:02;;;;;;;3.03;1.13;;;15.30;76.20;;;;;;5013244;28;20034;-69
2023/04/03 08:13:29;;;;;;;3.20;1.10;;;15.50;74.50;;;;;;5010508;28;20034;-69
2023/04/03 08:15:57;;;;;;;4.22;1.00;;;15.30;75.30;;;;;;5013505;28;20067;-68
2023/04/03 08:18:24;;;;;;;4.75;1.30;;;15.20;75.60;;;;;;5008251;28;20030;-69
2023/04/03 08:20:51;;;;;;;2.15;1.15;;;14.60;78.60;;;;;;5013311;28;20025;-68
2023/04/03 08:23:17;;;;;;;5.68;1.38;;;15.20;73.40;;;;;;5011574;28;20033;-66
2023/04/03 08:25:43;;;;;;;3.97;1.23;;;15.40;72.70;;;;;;5008647;28;20518;-68
2023/04/03 08:28:11;;;;;;;16.52;1.02;;;14.00;73.80;;;;;;5008663;28;20060;-68
2023/04/03 08:30:39;;;;;;;4.55;1.20;;;13.80;75.80;;;;;;5010213;28;20109;-68
2023/04/03 08:33:05;;;;;;;5.88;1.27;;;13.90;73.60;;;;;;5010537;28;20031;-68
2023/04/03 08:35:31;;;;;;;3.20;1.40;;;13.80;75.60;;;;;;5007734;28;20024;-67
2023/04/03 08:37:57;;;;;;;4.80;1.27;;;13.70;75.30;;;;;;5009284;28;20025;-68
2023/04/03 08:40:23;;;;;;;1.85;0.98;;;13.50;73.70;;;;;;5009939;28;20073;-67
2023/04/03 08:43:15;;;;;;;5.63;1.30;;;13.60;74.10;;;;;;5012487;28;20103;-68
2023/04/03 08:45:53;;;;;;;5.40;1.95;;;14.10;73.40;;;;;;5009144;28;20104;-68
2023/04/03 08:48:19;;;;;;;3.53;1.30;;;13.10;73.60;;;;;;5011760;28;20191;-67
2023/04/03 08:50:49;;;;;;;3.17;1.10;;;14.20;72.00;;;;;;5009606;28;20252;-66
2023/04/03 08:53:18;;;;;;;5.78;1.38;;;14.30;71.70;;;;;;5010284;28;20396;-67
2023/04/03 08:55:46;;;;;;;6.18;1.55;;;13.80;70.40;;;;;;5010098;28;20025;-68
2023/04/03 08:58:16;;;;;;;4.00;1.30;;;14.00;72.10;;;;;;5011116;28;20105;-67
2023/04/03 09:00:58;;;;;;;7.40;1.30;;;13.60;72.30;;;;;;4988339;28;20546;-68
2023/04/03 09:03:24;;;;;;;2.20;0.82;;;14.00;73.80;;;;;;5011404;28;20037;-68
2023/04/03 09:06:08;;;;;;;2.60;1.13;;;12.90;73.50;;;;;;5010205;28;20643;-69
2023/04/03 09:08:42;;;;;;;;;;;13.60;72.80;;;;;;5010025;28;20109;-67
2023/04/03 09:11:36;;;;;;;3.23;0.97;;;14.00;72.90;;;;;;5007494;28;19960;-67
2023/04/03 09:14:34;;;;;;;1.88;1.13;;;13.10;72.40;;;;;;5003908;28;20030;-67
2023/04/03 09:17:22;;;;;;;1.65;0.90;;;13.50;69.10;;;;;;5008086;28;20021;-67
2023/04/03 09:20:09;;;;;;;2.72;1.08;;;13.20;68.50;;;;;;5005572;28;20065;-68
2023/04/03 09:22:38;;;;;;;4.50;1.15;;;13.20;68.90;;;;;;5002615;28;20073;-66
2023/04/03 09:25:16;;;;;;;6.05;1.60;;;13.80;72.50;;;;;;5012106;28;20033;-68
2023/04/03 09:27:42;;;;;;;1.55;0.73;;;13.90;68.80;;;;;;5009032;28;20038;-67
2023/04/03 09:30:18;;;;;;;4.78;1.05;;;13.10;72.60;;;;;;5011845;28;20037;-69
2023/04/03 09:32:46;;;;;;;1.00;0.70;;;13.40;68.70;;;;;;5002828;28;20034;-67
2023/04/03 09:35:23;;;;;;;4.50;0.80;;;13.80;68.90;;;;;;5008992;28;20443;-67
2023/04/03 09:37:52;;;;;;;2.88;0.90;;;14.10;65.50;;;;;;5009508;28;20041;-68
2023/04/03 09:40:42;;;;;;;4.85;1.40;;;13.50;62.90;;;;;;5012285;28;20026;-67
2023/04/03 09:43:17;;;;;;;1.83;1.00;;;12.50;64.40;;;;;;5004139;28;20037;-67
2023/04/03 09:45:45;;;;;;;2.22;0.80;;;12.70;66.10;;;;;;5007321;28;20028;-67
2023/04/03 09:48:14;;;;;;;3.13;1.20;;;12.20;62.60;;;;;;5010805;28;20060;-67
2023/04/03 09:50:58;;;;;;;3.80;1.38;;;12.10;65.40;;;;;;5010276;28;20018;-67
2023/04/03 09:53:31;;;;;;;;;;;12.40;67.50;;;;;;5009512;28;20022;-67
2023/04/03 09:55:58;;;;;;;1.42;0.80;;;12.30;66.70;;;;;;5024181;28;19948;-67
2023/04/03 09:58:30;;;;;;;2.33;0.90;;;12.30;65.60;;;;;;5008824;28;20060;-66
2023/04/03 10:01:01;;;;;;;1.80;0.93;;;11.80;65.90;;;;;;4991514;28;20057;-66
2023/04/03 10:03:27;;;;;;;2.45;1.00;;;11.40;69.00;;;;;;5004859;28;20030;-68
2023/04/03 10:05:55;;;;;;;2.65;1.00;;;10.70;67.90;;;;;;5009352;28;20032;-68
2023/04/03 10:08:25;;;;;;;2.70;1.23;;;10.40;70.70;;;;;;5009178;28;20476;-67
2023/04/03 10:11:18;;;;;;;2.30;0.95;;;10.50;70.30;;;;;;5008935;28;20034;-66
2023/04/03 10:13:52;;;;;;;2.97;0.90;;;10.60;69.60;;;;;;5008264;28;20034;-66
2023/04/03 10:16:22;;;;;;;4.00;1.30;;;10.60;69.50;;;;;;5010263;28;20037;-67
2023/04/03 10:18:56;;;;;;;2.85;0.88;;;10.40;68.60;;;;;;5010341;28;20033;-66
2023/04/03 10:21:50;;;;;;;1.38;0.95;;;10.00;68.40;;;;;;5008273;28;20108;-66
2023/04/03 10:24:31;;;;;;;3.65;0.90;;;10.20;70.30;;;;;;5007042;28;20057;-66
2023/04/03 10:26:59;;;;;;;3.28;0.60;;;10.30;68.50;;;;;;5003550;28;20109;-66
2023/04/03 10:29:36;;;;;;;1.33;0.52;;;9.90;67.70;;;;;;5006137;28;20105;-67
2023/04/03 10:32:50;;;;;;;2.45;0.60;;;9.60;70.20;;;;;;5007864;28;20500;-67
2023/04/03 10:36:02;;;;;;;2.42;0.80;;;9.70;69.40;;;;;;4923659;28;20044;-66
2023/04/03 10:38:43;;;;;;;1.35;0.70;;;9.50;67.10;;;;;;4967131;28;20045;-66
2023/04/03 10:41:20;;;;;;;1.48;0.80;;;9.50;68.00;;;;;;5006825;28;20026;-66
2023/04/03 10:43:58;;;;;;;3.03;0.70;;;9.40;71.90;;;;;;5004683;28;20037;-66
2023/04/03 10:46:38;;;;;;;3.28;0.50;;;9.20;68.60;;;;;;5009746;28;20438;-67
2023/04/03 10:49:22;;;;;;;3.15;0.65;;;9.00;68.00;;;;;;5004759;28;20092;-67
2023/04/03 10:51:50;;;;;;;2.40;0.60;;;8.60;70.50;;;;;;5009614;28;20018;-67
2023/04/03 10:54:31;;;;;;;2.08;0.65;;;8.60;67.50;;;;;;5009953;28;20029;-65
2023/04/03 10:57:05;;;;;;;2.05;0.60;;;8.90;69.90;;;;;;5009747;28;20057;-66
2023/04/03 10:59:43;;;;;;;1.73;0.50;;;8.90;68.70;;;;;;5009366;28;20100;-67
2023/04/03 11:02:11;;;;;;;2.80;0.60;;;8.90;71.00;;;;;;4995347;28;20053;-66
2023/04/03 11:04:40;;;;;;;0.70;0.52;;;9.10;69.70;;;;;;5007818;28;20037;-66
2023/04/03 11:07:18;;;;;;;0.90;0.55;;;9.00;69.40;;;;;;5005972;28;20025;-67
2023/04/03 11:09:48;;;;;;;1.58;0.68;;;9.10;71.90;;;;;;5007365;28;20030;-66
2023/04/03 11:12:35;;;;;;;0.95;0.70;;;9.10;68.90;;;;;;5005589;28;20037;-66
2023/04/03 11:15:02;;;;;;;3.08;0.65;;;8.90;70.10;;;;;;5004253;28;20088;-67
2023/04/03 11:17:38;;;;;;;3.60;0.68;;;8.90;70.10;;;;;;5010099;28;20034;-68
2023/04/03 11:20:21;;;;;;;2.03;0.60;;;9.00;71.80;;;;;;5003007;28;20387;-66
2023/04/03 11:23:03;;;;;;;1.48;0.63;;;9.20;68.00;;;;;;5005396;28;20022;-67
2023/04/03 11:25:32;;;;;;;1.60;0.65;;;9.10;66.70;;;;;;5004873;28;20384;-67
2023/04/03 11:28:03;;;;;;;1.63;0.82;;;9.20;67.50;;;;;;5001197;28;20056;-66
2023/04/03 11:30:52;;;;;;;1.98;0.80;;;9.10;67.50;;;;;;5009012;28;20029;-67
2023/04/03 11:33:46;;;;;;;3.63;0.82;;;8.90;66.90;;;;;;5006218;28;20045;-67
2023/04/03 11:36:18;;;;;;;;;;;9.10;70.10;;;;;;4999101;28;20042;-67
2023/04/03 11:38:47;;;;;;;1.35;0.40;;;9.20;69.40;;;;;;5004179;28;19910;-67
2023/04/03 11:41:13;;;;;;;1.15;0.60;;;9.10;66.90;;;;;;5008619;28;20069;-67
2023/04/03 11:43:57;;;;;;;1.65;1.02;;;9.00;65.80;;;;;;5004620;28;20041;-67
2023/04/03 11:46:43;;;;;;;2.00;0.88;;;8.80;65.60;;;;;;5006270;28;20496;-66
2023/04/03 11:49:47;;;;;;;3.15;0.70;;;8.90;68.40;;;;;;5006476;28;20184;-68
2023/04/03 11:52:33;;;;;;;3.03;0.60;;;8.90;68.80;;;;;;5005307;28;20424;-66
2023/04/03 11:54:58;;;;;;;1.67;0.70;;;9.00;68.10;;;;;;5004910;28;20036;-67
2023/04/03 11:58:03;;;;;;;2.33;0.70;;;8.80;66.20;;;;;;4999054;28;20029;-67
2023/04/03 12:00:46;;;;;;;0.80;0.55;;;8.90;66.70;;;;;;4992437;28;20052;-67
2023/04/03 12:03:26;;;;;;;0.98;0.70;;;8.80;67.20;;;;;;5006521;28;20365;-66
2023/04/03 12:06:05;;;;;;;2.28;1.50;;;8.70;66.50;;;;;;5006703;28;20053;-67
2023/04/03 12:08:41;;;;;;;2.10;0.65;;;8.80;69.10;;;;;;5009533;28;20029;-68
2023/04/03 12:11:12;;;;;;;1.58;0.70;;;8.90;67.80;;;;;;5008011;28;20030;-67
2023/04/03 12:13:56;;;;;;;2.08;0.65;;;8.90;68.80;;;;;;5006824;28;20041;-67
2023/04/03 12:16:31;;;;;;;1.40;0.70;;;8.90;66.30;;;;;;5012174;28;20022;-67
2023/04/03 12:19:03;;;;;;;1.80;0.70;;;9.00;69.00;;;;;;5003265;28;20030;-66
2023/04/03 12:21:43;;;;;;;2.30;0.93;;;9.00;68.60;;;;;;5002660;28;20035;-67
2023/04/03 12:24:09;;;;;;;4.15;0.77;;;9.10;69.40;;;;;;5020670;28;20112;-65
2023/04/03 12:26:45;;;;;;;1.40;0.70;;;9.00;67.80;;;;;;5009193;28;20476;-67
2023/04/03 12:29:38;;;;;;;1.02;0.70;;;8.80;68.50;;;;;;5013046;28;20683;-67
2023/04/03 12:32:22;;;;;;;4.05;0.68;;;8.80;68.00;;;;;;5005548;28;20081;-67
2023/04/03 12:35:26;;;;;;;1.48;0.80;;;8.60;69.20;;;;;;5002624;28;20030;-67
2023/04/03 12:38:24;;;;;;;2.28;1.13;;;8.70;70.20;;;;;;5003183;28;20022;-66
2023/04/03 12:41:08;;;;;;;3.05;0.85;;;8.80;69.50;;;;;;5004632;28;20025;-66
2023/04/03 12:43:33;;;;;;;4.30;0.70;;;8.90;72.30;;;;;;5008008;28;20113;-67
2023/04/03 12:46:15;;;;;;;1.08;0.50;;;8.90;70.10;;;;;;5003327;28;20112;-66
2023/04/03 12:48:56;;;;;;;3.53;0.98;;;8.90;71.90;;;;;;5009506;28;20491;-68
2023/04/03 12:51:36;;;;;;;3.42;0.80;;;8.90;69.90;;;;;;5009499;28;20034;-66
2023/04/03 12:54:13;;;;;;;4.30;0.85;;;8.80;71.60;;;;;;5012558;28;20037;-67
2023/04/03 12:56:38;;;;;;;3.65;0.80;;;8.70;70.90;;;;;;5023204;28;20466;-65
2023/04/03 12:59:22;;;;;;;1.42;0.88;;;8.90;73.30;;;;;;5028334;28;20136;-68
2023/04/03 13:01:59;;;;;;;1.20;0.57;;;8.90;72.60;;;;;;4979349;28;20057;-67
2023/04/03 13:04:27;;;;;;;1.92;0.50;;;8.90;70.80;;;;;;5007174;28;20034;-67
2023/04/03 13:06:52;;;;;;;2.67;0.65;;;9.00;73.30;;;;;;5016096;28;20029;-68
2023/04/03 13:09:23;;;;;;;2.85;0.57;;;9.10;70.80;;;;;;5011291;28;20550;-66
2023/04/03 13:11:51;;;;;;;1.15;0.60;;;9.00;69.50;;;;;;5021145;28;20033;-66
2023/04/03 13:14:22;;;;;;;1.40;0.80;;;9.10;68.80;;;;;;5010784;28;20026;-66